createdAt,value
2023-04-25T00:00:00.407Z,11.13
2023-04-25T00:02:28.157Z,11.18
2023-04-25T00:04:56.266Z,11.19
2023-04-25T00:07:24.209Z,11.32
2023-04-25T00:09:53.265Z,11.33
2023-04-25T00:12:20.904Z,11.53
2023-04-25T00:14:48.588Z,12.32
2023-04-25T00:17:16.491Z,11.82
2023-04-25T00:19:44.150Z,11.71
2023-04-25T00:22:11.832Z,11.94
2023-04-25T00:24:39.500Z,12.10
2023-04-25T00:27:08.452Z,12.08
2023-04-25T00:29:36.112Z,12.62
2023-04-25T00:32:04.136Z,12.97
2023-04-25T00:34:32.200Z,12.86
2023-04-25T00:37:01.061Z,12.76
2023-04-25T00:39:28.664Z,12.36
2023-04-25T00:41:56.369Z,12.34
2023-04-25T00:44:25.870Z,13.24
2023-04-25T00:46:54.993Z,13.46
2023-04-25T00:49:22.978Z,13.27
2023-04-25T00:51:51.173Z,13.29
2023-04-25T00:54:19.489Z,12.88
2023-04-25T00:56:47.341Z,13.34
2023-04-25T00:59:16.428Z,13.35
2023-04-25T01:01:46.258Z,12.71
2023-04-25T01:04:14.379Z,12.56
2023-04-25T01:06:42.468Z,13.07
2023-04-25T01:09:11.088Z,12.76
2023-04-25T01:11:38.628Z,12.09
2023-04-25T01:14:06.233Z,12.33
2023-04-25T01:16:33.936Z,12.20
2023-04-25T01:19:09.969Z,12.08
2023-04-25T01:21:39.290Z,12.10
2023-04-25T01:24:07.634Z,12.03
2023-04-25T01:26:36.912Z,11.81
2023-04-25T01:29:05.625Z,11.73
2023-04-25T01:31:35.132Z,11.49
2023-04-25T01:34:02.785Z,11.37
2023-04-25T01:36:30.615Z,11.37
2023-04-25T01:39:00.549Z,11.10
2023-04-25T01:41:28.231Z,10.76
2023-04-25T01:43:56.575Z,10.63
2023-04-25T01:46:24.900Z,10.93
2023-04-25T01:48:57.089Z,10.62
2023-04-25T01:51:24.862Z,10.42
2023-04-25T01:53:53.601Z,10.17
2023-04-25T01:56:22.758Z,10.29
2023-04-25T01:58:50.584Z,10.31
2023-04-25T02:01:18.368Z,10.28
2023-04-25T02:03:46.137Z,9.70
2023-04-25T02:06:13.819Z,9.48
2023-04-25T02:08:41.822Z,9.22
2023-04-25T02:11:09.384Z,9.23
2023-04-25T02:13:38.669Z,9.40
2023-04-25T02:16:07.060Z,9.94
2023-04-25T02:18:34.933Z,10.44
2023-04-25T02:21:02.582Z,10.26
2023-04-25T02:23:30.490Z,10.41
2023-04-25T02:25:58.564Z,10.55
2023-04-25T02:28:26.223Z,11.48
2023-04-25T02:30:55.367Z,11.81
2023-04-25T02:33:23.085Z,12.00
2023-04-25T02:35:50.702Z,11.39
2023-04-25T02:38:18.314Z,10.39
2023-04-25T02:40:45.874Z,10.31
2023-04-25T02:43:13.467Z,9.91
2023-04-25T02:45:41.359Z,9.23
2023-04-25T02:48:10.400Z,9.30
2023-04-25T02:50:37.987Z,9.76
2023-04-25T02:53:05.567Z,9.27
2023-04-25T02:55:33.132Z,9.90
2023-04-25T02:58:00.702Z,10.05
2023-04-25T03:00:28.746Z,10.28
2023-04-25T03:02:57.023Z,10.09
2023-04-25T03:05:26.217Z,10.13
2023-04-25T03:07:53.806Z,9.94
2023-04-25T03:10:21.486Z,10.30
2023-04-25T03:12:50.609Z,10.09
2023-04-25T03:15:18.458Z,10.27
2023-04-25T03:17:46.133Z,9.58
2023-04-25T03:20:14.090Z,10.17
2023-04-25T03:22:43.276Z,9.71
2023-04-25T03:25:11.489Z,9.43
2023-04-25T03:27:39.089Z,9.34
2023-04-25T03:30:07.961Z,9.77
2023-04-25T03:32:35.966Z,9.80
2023-04-25T03:35:05.238Z,9.13
2023-04-25T03:37:33.019Z,9.81
2023-04-25T03:40:02.013Z,10.00
2023-04-25T03:42:29.613Z,9.80
2023-04-25T03:44:57.293Z,9.58
2023-04-25T03:47:25.006Z,9.89
2023-04-25T03:49:52.939Z,10.19
2023-04-25T03:52:20.604Z,10.35
2023-04-25T03:54:48.269Z,10.39
2023-04-25T03:57:17.227Z,10.45
2023-04-25T03:59:44.876Z,10.40
2023-04-25T04:02:12.791Z,10.09
2023-04-25T04:04:40.800Z,9.42
2023-04-25T04:07:08.653Z,9.84
2023-04-25T04:09:36.214Z,10.01
2023-04-25T04:12:04.270Z,9.75
2023-04-25T04:14:33.192Z,9.16
2023-04-25T04:17:00.737Z,9.85
2023-04-25T04:19:28.378Z,9.52
2023-04-25T04:21:55.947Z,9.44
2023-04-25T04:24:23.658Z,9.57
2023-04-25T04:26:51.489Z,9.43
2023-04-25T04:29:19.142Z,9.39
2023-04-25T04:31:48.810Z,8.82
2023-04-25T04:34:16.544Z,8.51
2023-04-25T04:36:44.195Z,8.07
2023-04-25T04:39:11.824Z,8.03
2023-04-25T04:41:39.854Z,8.03
2023-04-25T04:44:08.864Z,8.08
2023-04-25T04:46:36.621Z,8.26
2023-04-25T04:49:06.592Z,8.21
2023-04-25T04:51:34.330Z,8.33
2023-04-25T04:54:01.949Z,8.38
2023-04-25T04:56:29.985Z,8.44
2023-04-25T04:58:58.048Z,8.33
2023-04-25T05:01:26.120Z,8.22
2023-04-25T05:03:54.497Z,8.11
2023-04-25T05:06:24.010Z,8.28
2023-04-25T05:08:51.588Z,8.29
2023-04-25T05:11:20.525Z,8.31
2023-04-25T05:13:50.865Z,8.25
2023-04-25T05:16:19.002Z,8.12
2023-04-25T05:18:47.504Z,8.32
2023-04-25T05:21:15.276Z,8.20
2023-04-25T05:23:44.310Z,8.28
2023-04-25T05:26:12.083Z,8.52
2023-04-25T05:28:42.717Z,8.90
2023-04-25T05:31:11.325Z,8.78
2023-04-25T05:33:39.002Z,8.82
2023-04-25T05:36:07.756Z,8.82
2023-04-25T05:38:35.358Z,8.98
2023-04-25T05:41:04.738Z,9.23
2023-04-25T05:43:32.632Z,9.23
2023-04-25T05:46:00.402Z,9.42
2023-04-25T05:48:28.209Z,9.73
2023-04-25T05:50:55.879Z,9.08
2023-04-25T05:53:23.477Z,9.46
2023-04-25T05:55:51.295Z,8.90
2023-04-25T05:58:20.312Z,9.47
2023-04-25T06:00:48.133Z,9.68
2023-04-25T06:03:17.757Z,10.25
2023-04-25T06:05:47.417Z,9.17
2023-04-25T06:08:15.318Z,9.42
2023-04-25T06:10:43.142Z,10.14
2023-04-25T06:13:10.774Z,9.91
2023-04-25T06:15:39.755Z,9.55
2023-04-25T06:18:07.858Z,9.10
2023-04-25T06:20:35.540Z,8.81
2023-04-25T06:23:03.127Z,8.57
2023-04-25T06:25:30.825Z,8.62
2023-04-25T06:27:58.423Z,8.44
2023-04-25T06:30:26.178Z,8.10
2023-04-25T06:32:55.275Z,7.98
2023-04-25T06:35:23.152Z,8.21
2023-04-25T06:37:51.034Z,8.58
2023-04-25T06:40:18.774Z,8.44
2023-04-25T06:42:46.581Z,8.52
2023-04-25T06:45:14.286Z,8.48
2023-04-25T06:47:42.177Z,8.42
2023-04-25T06:50:11.337Z,8.52
2023-04-25T06:52:39.002Z,8.53
2023-04-25T06:55:07.496Z,8.71
2023-04-25T06:57:35.141Z,8.75
2023-04-25T07:00:03.313Z,8.67
2023-04-25T07:02:31.105Z,8.85
2023-04-25T07:04:58.865Z,9.34
2023-04-25T07:07:28.016Z,9.44
2023-04-25T07:09:55.706Z,9.49
2023-04-25T07:12:23.464Z,10.75
2023-04-25T07:14:51.211Z,10.25
2023-04-25T07:17:19.047Z,9.77
2023-04-25T07:19:46.656Z,10.40
2023-04-25T07:22:14.225Z,9.42
2023-04-25T07:24:43.288Z,9.06
2023-04-25T07:27:11.178Z,10.49
2023-04-25T07:29:38.777Z,11.85
2023-04-25T07:32:06.471Z,13.03
2023-04-25T07:34:34.117Z,13.47
2023-04-25T07:37:01.765Z,14.13
2023-04-25T07:39:29.606Z,15.10
2023-04-25T07:41:58.738Z,14.10
2023-04-25T07:44:26.364Z,13.30
2023-04-25T07:46:54.041Z,12.83
2023-04-25T07:49:21.709Z,13.20
2023-04-25T07:51:49.335Z,13.32
2023-04-25T07:54:17.884Z,12.62
2023-04-25T07:56:52.168Z,11.34
2023-04-25T07:59:22.453Z,12.90
2023-04-25T08:01:50.047Z,13.49
2023-04-25T08:04:18.079Z,12.66
2023-04-25T08:06:45.829Z,14.82
2023-04-25T08:09:15.682Z,13.50
2023-04-25T08:11:43.386Z,14.45
2023-04-25T08:14:12.509Z,12.05
2023-04-25T08:16:41.984Z,12.75
2023-04-25T08:19:09.791Z,11.08
2023-04-25T08:21:37.625Z,11.37
2023-04-25T08:24:05.575Z,11.34
2023-04-25T08:26:33.255Z,10.64
2023-04-25T08:29:00.951Z,9.90
2023-04-25T08:31:28.704Z,10.22
2023-04-25T08:33:57.896Z,10.33
2023-04-25T08:36:38.773Z,9.98
2023-04-25T08:39:10.007Z,11.06
2023-04-25T08:41:38.150Z,10.93
2023-04-25T08:44:07.897Z,12.70
2023-04-25T08:46:36.545Z,11.94
2023-04-25T08:49:05.526Z,11.13
2023-04-25T08:51:33.896Z,11.50
2023-04-25T08:54:19.729Z,10.96
2023-04-25T08:57:01.486Z,10.95
2023-04-25T08:59:30.479Z,11.33
2023-04-25T09:01:58.609Z,11.75
2023-04-25T09:04:31.400Z,12.44
2023-04-25T09:06:59.083Z,11.61
2023-04-25T09:09:26.705Z,11.35
2023-04-25T09:11:55.466Z,11.20
2023-04-25T09:14:24.407Z,11.93
2023-04-25T09:17:03.651Z,11.93
2023-04-25T09:19:40.251Z,11.80
2023-04-25T09:22:09.550Z,11.02
2023-04-25T09:24:39.565Z,10.51
2023-04-25T09:27:09.563Z,10.43
2023-04-25T09:29:39.018Z,10.24
2023-04-25T09:32:16.444Z,9.89
2023-04-25T09:34:49.595Z,9.85
2023-04-25T09:37:22.188Z,10.16
2023-04-25T09:39:51.891Z,10.49
2023-04-25T09:42:23.690Z,11.76
2023-04-25T09:44:53.827Z,12.45
2023-04-25T09:47:24.664Z,13.32
2023-04-25T09:49:54.996Z,14.12
2023-04-25T09:52:25.596Z,13.78
2023-04-25T09:54:54.012Z,14.75
2023-04-25T09:57:23.569Z,15.40
2023-04-25T09:59:53.239Z,14.70
2023-04-25T10:02:23.834Z,14.72
2023-04-25T10:04:54.445Z,16.01
2023-04-25T10:07:24.201Z,15.48
2023-04-25T10:09:59.040Z,14.71
2023-04-25T10:12:27.322Z,15.61
2023-04-25T10:14:55.767Z,15.47
2023-04-25T10:17:24.250Z,14.65
2023-04-25T10:19:55.130Z,14.49
2023-04-25T10:22:32.081Z,14.43
2023-04-25T10:25:01.134Z,14.06
2023-04-25T10:27:29.188Z,13.80
2023-04-25T10:30:05.097Z,13.16
2023-04-25T10:32:33.214Z,12.43
2023-04-25T10:35:14.064Z,12.55
2023-04-25T10:38:00.283Z,12.62
2023-04-25T10:40:28.642Z,12.97
2023-04-25T10:42:56.549Z,12.76
2023-04-25T10:45:24.404Z,12.99
2023-04-25T10:47:52.106Z,13.20
2023-04-25T10:50:21.073Z,13.00
2023-04-25T10:52:48.984Z,13.05
2023-04-25T10:55:16.549Z,13.02
2023-04-25T10:57:46.244Z,12.94
2023-04-25T11:00:16.354Z,12.96
2023-04-25T11:02:46.593Z,13.30
2023-04-25T11:05:23.877Z,13.56
2023-04-25T11:08:06.356Z,13.90
2023-04-25T11:10:35.404Z,13.69
2023-04-25T11:13:03.788Z,13.11
2023-04-25T11:15:31.408Z,13.39
2023-04-25T11:17:59.044Z,13.70
2023-04-25T11:20:30.365Z,13.28
2023-04-25T11:22:59.386Z,13.23
2023-04-25T11:25:27.344Z,13.80
2023-04-25T11:27:56.327Z,14.03
2023-04-25T11:30:25.849Z,14.42
2023-04-25T11:32:54.237Z,15.09
2023-04-25T11:35:21.939Z,15.85
2023-04-25T11:37:50.987Z,16.19
2023-04-25T11:40:18.804Z,15.78
2023-04-25T11:42:47.896Z,17.06
2023-04-25T11:45:16.264Z,17.23
2023-04-25T11:47:43.988Z,17.83
2023-04-25T11:50:13.450Z,18.34
2023-04-25T11:52:43.139Z,18.14
2023-04-25T11:55:15.073Z,18.71
2023-04-25T11:57:44.702Z,19.11
2023-04-25T12:00:18.118Z,19.09
2023-04-25T12:02:48.943Z,19.00
2023-04-25T12:05:31.268Z,18.36
2023-04-25T12:08:10.914Z,18.40
2023-04-25T12:10:42.284Z,18.88
2023-04-25T12:13:20.488Z,17.85
2023-04-25T12:15:48.755Z,18.23
2023-04-25T12:18:20.487Z,17.16
2023-04-25T12:20:48.311Z,18.27
2023-04-25T12:23:16.111Z,18.31
2023-04-25T12:25:45.791Z,18.02
2023-04-25T12:28:15.790Z,16.16
2023-04-25T12:30:54.190Z,15.98
2023-04-25T12:33:21.975Z,16.10
2023-04-25T12:35:49.760Z,15.15
2023-04-25T12:38:22.528Z,14.97
2023-04-25T12:40:51.624Z,15.07
2023-04-25T12:43:19.234Z,13.40
2023-04-25T12:45:48.621Z,14.29
2023-04-25T12:48:16.332Z,14.05
2023-04-25T12:50:44.569Z,13.59
2023-04-25T12:53:12.549Z,14.13
2023-04-25T12:55:42.751Z,13.73
2023-04-25T12:58:11.768Z,14.26
2023-04-25T13:00:39.454Z,13.57
2023-04-25T13:03:07.456Z,13.90
2023-04-25T13:05:35.288Z,14.70
2023-04-25T13:08:02.961Z,14.88
2023-04-25T13:10:31.295Z,14.37
2023-04-25T13:12:58.847Z,15.30
2023-04-25T13:15:28.001Z,14.90
2023-04-25T13:17:55.762Z,15.05
2023-04-25T13:20:23.462Z,14.30
2023-04-25T13:22:51.065Z,14.21
2023-04-25T13:25:18.594Z,14.91
2023-04-25T13:27:46.253Z,14.57
2023-04-25T13:30:14.552Z,14.44
2023-04-25T13:32:43.665Z,13.61
2023-04-25T13:35:14.146Z,14.27
2023-04-25T13:37:41.980Z,13.86
2023-04-25T13:40:11.956Z,13.68
2023-04-25T13:42:40.273Z,13.24
2023-04-25T13:45:09.052Z,13.12
2023-04-25T13:47:36.788Z,12.94
2023-04-25T13:50:07.233Z,13.73
2023-04-25T13:52:35.507Z,13.44
2023-04-25T13:55:03.757Z,13.39
2023-04-25T13:57:31.852Z,12.88
2023-04-25T13:59:59.513Z,12.77
2023-04-25T14:02:27.287Z,13.41
2023-04-25T14:04:55.102Z,14.86
2023-04-25T14:07:24.671Z,14.88
2023-04-25T14:09:52.460Z,14.67
2023-04-25T14:12:20.013Z,13.78
2023-04-25T14:14:47.583Z,13.56
2023-04-25T14:17:15.252Z,14.47
2023-04-25T14:19:42.831Z,14.36
2023-04-25T14:22:10.570Z,13.91
2023-04-25T14:24:39.505Z,14.35
2023-04-25T14:27:07.488Z,14.20
2023-04-25T14:29:35.539Z,14.85
2023-04-25T14:32:03.558Z,14.29
2023-04-25T14:34:31.329Z,14.72
2023-04-25T14:37:02.108Z,15.71
2023-04-25T14:39:29.780Z,16.25
2023-04-25T14:41:58.952Z,17.07
2023-04-25T14:44:28.885Z,17.29
2023-04-25T14:46:56.703Z,17.66
2023-04-25T14:49:24.511Z,17.63
2023-04-25T14:51:52.321Z,17.07
2023-04-25T14:54:20.275Z,17.61
2023-04-25T14:56:47.913Z,17.72
2023-04-25T14:59:19.181Z,18.19
2023-04-25T15:01:47.035Z,16.96
2023-04-25T15:04:14.669Z,16.52
2023-04-25T15:06:42.250Z,16.27
2023-04-25T15:09:09.890Z,16.67
2023-04-25T15:11:37.686Z,16.17
2023-04-25T15:14:05.283Z,15.63
2023-04-25T15:16:34.283Z,14.18
2023-04-25T15:19:01.871Z,14.04
2023-04-25T15:21:30.244Z,14.52
2023-04-25T15:23:57.864Z,13.73
2023-04-25T15:26:25.470Z,13.53
2023-04-25T15:28:53.113Z,13.83
2023-04-25T15:31:20.932Z,14.92
2023-04-25T15:33:50.098Z,14.87
2023-04-25T15:36:17.936Z,14.40
2023-04-25T15:38:45.546Z,13.60
2023-04-25T15:41:13.395Z,14.12
2023-04-25T15:43:40.922Z,13.35
2023-04-25T15:46:08.861Z,12.56
2023-04-25T15:48:36.546Z,12.28
2023-04-25T15:51:05.729Z,12.20
2023-04-25T15:53:33.471Z,12.22
2023-04-25T15:56:01.229Z,12.94
2023-04-25T15:58:28.772Z,12.99
2023-04-25T16:00:56.746Z,13.45
2023-04-25T16:03:24.683Z,13.39
2023-04-25T16:05:53.815Z,12.83
2023-04-25T16:08:22.802Z,13.15
2023-04-25T16:10:50.412Z,13.99
2023-04-25T16:13:17.978Z,13.86
2023-04-25T16:15:45.605Z,14.16
2023-04-25T16:18:13.295Z,14.48
2023-04-25T16:20:41.097Z,13.51
2023-04-25T16:23:09.125Z,13.19
2023-04-25T16:25:38.123Z,12.89
2023-04-25T16:28:05.854Z,13.01
2023-04-25T16:30:33.529Z,13.61
2023-04-25T16:33:01.270Z,12.61
2023-04-25T16:35:28.873Z,12.35
2023-04-25T16:37:56.513Z,13.24
2023-04-25T16:40:24.172Z,13.31
2023-04-25T16:42:53.113Z,13.95
2023-04-25T16:45:21.123Z,13.92
2023-04-25T16:47:48.760Z,14.19
2023-04-25T16:50:17.005Z,13.03
2023-04-25T16:52:44.758Z,13.24
2023-04-25T16:55:14.043Z,12.82
2023-04-25T16:57:44.061Z,13.33
2023-04-25T17:00:14.820Z,14.49
2023-04-25T17:02:42.559Z,14.59
2023-04-25T17:05:10.681Z,13.81
2023-04-25T17:07:38.392Z,13.98
2023-04-25T17:10:06.910Z,13.36
2023-04-25T17:12:35.661Z,13.66
2023-04-25T17:15:03.986Z,14.02
2023-04-25T17:17:33.191Z,13.13
2023-04-25T17:20:00.930Z,13.01
2023-04-25T17:22:28.742Z,13.16
2023-04-25T17:24:56.565Z,12.90
2023-04-25T17:27:24.492Z,12.58
2023-04-25T17:29:52.155Z,12.63
2023-04-25T17:32:20.230Z,13.56
2023-04-25T17:34:50.435Z,13.43
2023-04-25T17:37:18.255Z,13.45
2023-04-25T17:39:45.935Z,13.08
2023-04-25T17:42:13.650Z,12.53
2023-04-25T17:44:41.735Z,12.17
2023-04-25T17:47:10.520Z,12.06
2023-04-25T17:49:38.180Z,12.01
2023-04-25T17:52:07.420Z,11.89
2023-04-25T17:54:35.161Z,11.77
2023-04-25T17:57:02.886Z,11.92
2023-04-25T17:59:30.621Z,11.86
2023-04-25T18:01:59.585Z,11.96
2023-04-25T18:04:27.220Z,12.11
2023-04-25T18:06:55.017Z,12.18
2023-04-25T18:09:24.522Z,12.13
2023-04-25T18:11:53.243Z,11.92
2023-04-25T18:14:22.168Z,11.88
2023-04-25T18:16:51.925Z,11.96
2023-04-25T18:19:20.463Z,11.79
2023-04-25T18:21:51.096Z,11.75
2023-04-25T18:24:18.997Z,11.70
2023-04-25T18:26:49.157Z,11.72
2023-04-25T18:29:31.417Z,11.82
2023-04-25T18:32:01.511Z,11.89
2023-04-25T18:34:29.404Z,11.90
2023-04-25T18:36:58.056Z,11.79
2023-04-25T18:39:27.449Z,11.82
2023-04-25T18:42:01.561Z,11.76
2023-04-25T18:44:32.225Z,11.78
2023-04-25T18:46:59.831Z,11.72
2023-04-25T18:49:27.426Z,11.72
2023-04-25T18:51:55.142Z,11.69
2023-04-25T18:54:22.778Z,11.65
2023-04-25T18:56:50.433Z,11.63
2023-04-25T18:59:19.463Z,11.66
2023-04-25T19:01:47.176Z,11.62
2023-04-25T19:04:15.011Z,11.65
2023-04-25T19:06:42.641Z,11.61
2023-04-25T19:09:10.292Z,11.71
2023-04-25T19:11:37.957Z,11.67
2023-04-25T19:14:05.634Z,11.75
2023-04-25T19:16:34.627Z,11.75
2023-04-25T19:19:02.308Z,11.78
2023-04-25T19:21:30.171Z,11.64
2023-04-25T19:23:57.758Z,11.71
2023-04-25T19:26:25.433Z,11.75
2023-04-25T19:29:05.008Z,11.74
2023-04-25T19:31:37.733Z,11.79
2023-04-25T19:34:06.964Z,11.90
2023-04-25T19:36:37.212Z,12.02
2023-04-25T19:39:04.974Z,12.06
2023-04-25T19:41:35.414Z,12.26
2023-04-25T19:44:04.239Z,12.32
2023-04-25T19:46:34.379Z,12.35
2023-04-25T19:49:04.120Z,12.79
2023-04-25T19:51:33.933Z,13.15
2023-04-25T19:54:01.623Z,13.14
2023-04-25T19:56:29.206Z,12.67
2023-04-25T19:58:56.931Z,12.01
2023-04-25T20:01:25.369Z,12.55
2023-04-25T20:03:54.661Z,13.08
2023-04-25T20:06:24.949Z,13.19
2023-04-25T20:08:53.441Z,12.43
2023-04-25T20:11:21.555Z,12.19
2023-04-25T20:13:49.275Z,12.07
2023-04-25T20:16:16.895Z,11.78
2023-04-25T20:18:44.573Z,11.14
2023-04-25T20:21:14.088Z,11.16
2023-04-25T20:23:41.632Z,10.95
2023-04-25T20:26:09.402Z,10.73
2023-04-25T20:28:37.400Z,10.75
2023-04-25T20:31:05.238Z,10.77
2023-04-25T20:33:33.089Z,10.84
2023-04-25T20:36:00.766Z,10.67
2023-04-25T20:38:29.985Z,10.74
2023-04-25T20:40:57.690Z,10.67
2023-04-25T20:43:25.525Z,11.27
2023-04-25T20:45:53.215Z,11.75
2023-04-25T20:48:21.112Z,11.09
2023-04-25T20:50:48.988Z,10.92
2023-04-25T20:53:16.567Z,10.67
2023-04-25T20:55:46.040Z,10.46
2023-04-25T20:58:13.666Z,10.61
2023-04-25T21:00:41.303Z,10.42
2023-04-25T21:03:09.240Z,10.42
2023-04-25T21:05:37.003Z,10.50
2023-04-25T21:08:04.698Z,10.67
2023-04-25T21:10:32.247Z,11.59
2023-04-25T21:13:01.429Z,11.45
2023-04-25T21:15:29.351Z,11.36
2023-04-25T21:17:57.097Z,11.47
2023-04-25T21:20:25.163Z,12.04
2023-04-25T21:22:54.121Z,12.25
2023-04-25T21:25:24.398Z,11.44
2023-04-25T21:27:52.893Z,11.48
2023-04-25T21:30:23.847Z,11.43
2023-04-25T21:32:52.596Z,11.05
2023-04-25T21:35:22.455Z,11.67
2023-04-25T21:37:50.887Z,12.27
2023-04-25T21:40:19.116Z,12.28
2023-04-25T21:42:47.512Z,12.22
2023-04-25T21:45:15.385Z,11.69
2023-04-25T21:47:44.338Z,11.55
2023-04-25T21:50:12.479Z,11.66
2023-04-25T21:52:40.414Z,11.69
2023-04-25T21:55:08.823Z,10.82
2023-04-25T21:57:36.492Z,11.44
2023-04-25T22:00:05.076Z,10.50
2023-04-25T22:02:32.824Z,9.85
2023-04-25T22:05:01.945Z,9.49
2023-04-25T22:07:31.950Z,10.34
2023-04-25T22:09:59.598Z,9.70
2023-04-25T22:12:27.385Z,9.23
2023-04-25T22:14:55.205Z,9.23
2023-04-25T22:17:22.893Z,10.25
2023-04-25T22:19:51.749Z,10.65
2023-04-25T22:22:20.737Z,10.56
2023-04-25T22:24:48.306Z,10.91
2023-04-25T22:27:15.951Z,9.44
2023-04-25T22:29:43.542Z,8.98
2023-04-25T22:32:11.145Z,8.80
2023-04-25T22:34:38.708Z,9.57
2023-04-25T22:37:06.332Z,9.93
2023-04-25T22:39:35.261Z,10.07
2023-04-25T22:42:02.851Z,9.83
2023-04-25T22:44:30.539Z,9.49
2023-04-25T22:46:58.099Z,10.23
2023-04-25T22:49:25.732Z,9.74
2023-04-25T22:51:53.489Z,9.85
2023-04-25T22:54:21.103Z,10.61
2023-04-25T22:56:50.132Z,10.03
2023-04-25T22:59:17.858Z,9.68
2023-04-25T23:01:45.839Z,9.66
2023-04-25T23:04:13.714Z,9.99
2023-04-25T23:06:41.407Z,10.11
2023-04-25T23:09:09.104Z,9.99
2023-04-25T23:11:36.763Z,10.03
2023-04-25T23:14:05.873Z,10.21
2023-04-25T23:16:34.298Z,9.57
2023-04-25T23:19:02.183Z,9.49
2023-04-25T23:21:29.896Z,9.30
2023-04-25T23:23:57.752Z,9.34
2023-04-25T23:26:25.371Z,9.17
2023-04-25T23:28:53.550Z,9.10
2023-04-25T23:31:22.922Z,9.05
2023-04-25T23:33:50.546Z,9.25
2023-04-25T23:36:18.432Z,9.25
2023-04-25T23:38:45.986Z,9.65
2023-04-25T23:41:13.637Z,10.49
2023-04-25T23:43:41.221Z,10.36
2023-04-25T23:46:08.857Z,10.31
2023-04-25T23:48:37.988Z,10.38
2023-04-25T23:51:05.628Z,10.27
2023-04-25T23:53:33.190Z,10.25
2023-04-25T23:56:00.840Z,10.71
2023-04-25T23:58:28.451Z,10.82
